createdAt,value
2022-12-26T00:00:37.791Z,0.00
2022-12-26T00:01:37.628Z,0.00
2022-12-26T00:02:37.691Z,0.00
2022-12-26T00:03:37.854Z,0.00
2022-12-26T00:04:51.180Z,0.00
2022-12-26T00:05:38.595Z,0.00
2022-12-26T00:06:37.615Z,0.00
2022-12-26T00:07:37.573Z,0.00
2022-12-26T00:08:37.570Z,0.00
2022-12-26T00:09:37.584Z,0.00
2022-12-26T00:10:37.556Z,0.00
2022-12-26T00:11:37.560Z,0.00
2022-12-26T00:12:37.540Z,0.00
2022-12-26T00:13:41.342Z,0.00
2022-12-26T00:14:37.531Z,0.00
2022-12-26T00:15:37.526Z,0.00
2022-12-26T00:16:37.586Z,0.00
2022-12-26T00:17:37.553Z,0.00
2022-12-26T00:18:37.505Z,0.00
2022-12-26T00:19:37.499Z,0.00
2022-12-26T00:20:37.489Z,0.00
2022-12-26T00:21:37.483Z,0.00
2022-12-26T00:22:37.499Z,0.00
2022-12-26T00:23:37.473Z,0.00
2022-12-26T00:24:37.467Z,0.00
2022-12-26T00:25:37.458Z,0.00
2022-12-26T00:26:37.447Z,0.00
2022-12-26T00:27:37.438Z,0.00
2022-12-26T00:28:37.451Z,0.00
2022-12-26T00:29:37.429Z,0.00
2022-12-26T00:30:37.415Z,0.00
2022-12-26T00:31:37.443Z,0.00
2022-12-26T00:32:37.411Z,0.00
2022-12-26T00:33:37.437Z,0.00
2022-12-26T00:34:37.396Z,0.00
2022-12-26T00:35:37.380Z,0.00
2022-12-26T00:36:37.383Z,0.00
2022-12-26T00:37:37.376Z,0.00
2022-12-26T00:38:37.370Z,0.00
2022-12-26T00:39:37.369Z,0.00
2022-12-26T00:40:37.372Z,0.00
2022-12-26T00:41:37.347Z,0.00
2022-12-26T00:42:37.362Z,0.00
2022-12-26T00:43:37.324Z,0.00
2022-12-26T00:44:37.334Z,0.00
2022-12-26T00:45:37.326Z,0.00
2022-12-26T00:46:37.379Z,0.00
2022-12-26T00:47:37.329Z,0.00
2022-12-26T00:48:37.287Z,0.00
2022-12-26T00:50:14.251Z,0.00
2022-12-26T00:50:38.296Z,0.00
2022-12-26T00:51:37.300Z,0.00
2022-12-26T00:52:37.267Z,0.00
2022-12-26T00:53:37.272Z,0.00
2022-12-26T00:54:37.256Z,0.00
2022-12-26T00:55:37.255Z,0.00
2022-12-26T00:56:37.267Z,0.00
2022-12-26T00:57:37.255Z,0.00
2022-12-26T00:58:37.234Z,0.00
2022-12-26T00:59:37.239Z,0.00
2022-12-26T01:00:37.263Z,0.00
2022-12-26T01:01:37.404Z,0.00
2022-12-26T01:02:37.389Z,0.00
2022-12-26T01:03:37.200Z,0.00
2022-12-26T01:04:37.180Z,0.00
2022-12-26T01:05:37.180Z,0.00
2022-12-26T01:06:37.166Z,0.00
2022-12-26T01:08:22.019Z,0.00
2022-12-26T01:08:38.166Z,0.00
2022-12-26T01:09:37.156Z,0.00
2022-12-26T01:10:37.147Z,0.00
2022-12-26T01:11:37.142Z,0.00
2022-12-26T01:12:37.142Z,0.00
2022-12-26T01:13:37.134Z,0.00
2022-12-26T01:14:37.126Z,0.00
2022-12-26T01:15:37.135Z,0.00
2022-12-26T01:16:37.192Z,0.00
2022-12-26T01:17:37.106Z,0.00
2022-12-26T01:18:37.096Z,0.00
2022-12-26T01:19:37.087Z,0.00
2022-12-26T01:20:37.086Z,0.00
2022-12-26T01:21:37.086Z,0.00
2022-12-26T01:22:37.075Z,0.00
2022-12-26T01:23:37.085Z,0.00
2022-12-26T01:24:37.058Z,0.00
2022-12-26T01:25:37.040Z,0.00
2022-12-26T01:26:38.067Z,0.00
2022-12-26T01:27:37.053Z,0.00
2022-12-26T01:28:37.038Z,0.00
2022-12-26T01:29:37.020Z,0.00
2022-12-26T01:30:37.011Z,0.00
2022-12-26T01:31:37.045Z,0.00
2022-12-26T01:32:37.019Z,0.00
2022-12-26T01:33:37.017Z,0.00
2022-12-26T01:34:36.980Z,0.00
2022-12-26T01:35:36.976Z,0.00
2022-12-26T01:36:36.980Z,0.00
2022-12-26T01:37:36.998Z,0.00
2022-12-26T01:38:36.998Z,0.00
2022-12-26T01:39:36.960Z,0.00
2022-12-26T01:40:36.945Z,0.00
2022-12-26T01:41:36.932Z,0.00
2022-12-26T01:42:36.936Z,0.00
2022-12-26T01:43:36.927Z,0.00
2022-12-26T01:44:37.925Z,0.00
2022-12-26T01:45:36.944Z,0.00
2022-12-26T01:46:36.911Z,0.00
2022-12-26T01:47:36.926Z,0.00
2022-12-26T01:48:36.888Z,0.00
2022-12-26T01:49:36.885Z,0.00
2022-12-26T01:50:36.880Z,0.00
2022-12-26T01:51:36.872Z,0.00
2022-12-26T01:52:36.895Z,0.00
2022-12-26T01:53:36.866Z,0.00
2022-12-26T01:54:39.490Z,0.00
2022-12-26T01:55:37.855Z,0.00
2022-12-26T01:56:36.835Z,0.00
2022-12-26T01:57:36.846Z,0.00
2022-12-26T01:58:36.887Z,0.00
2022-12-26T01:59:36.826Z,0.00
2022-12-26T02:00:36.934Z,0.00
2022-12-26T02:01:36.948Z,0.00
2022-12-26T02:02:36.943Z,0.00
2022-12-26T02:03:36.808Z,0.00
2022-12-26T02:04:36.807Z,0.00
2022-12-26T02:05:36.781Z,0.00
2022-12-26T02:06:36.766Z,0.00
2022-12-26T02:07:36.758Z,0.00
2022-12-26T02:08:36.755Z,0.00
2022-12-26T02:09:36.756Z,0.00
2022-12-26T02:10:36.755Z,0.00
2022-12-26T02:11:36.729Z,0.00
2022-12-26T02:12:38.726Z,0.00
2022-12-26T02:13:37.728Z,0.00
2022-12-26T02:14:36.730Z,0.00
2022-12-26T02:15:36.712Z,0.00
2022-12-26T02:16:36.723Z,0.00
2022-12-26T02:17:36.727Z,0.00
2022-12-26T02:18:36.687Z,0.00
2022-12-26T02:19:36.696Z,0.00
2022-12-26T02:20:36.682Z,0.00
2022-12-26T02:21:36.676Z,0.00
2022-12-26T02:22:36.656Z,0.00
2022-12-26T02:23:37.647Z,0.00
2022-12-26T02:24:36.662Z,0.00
2022-12-26T02:25:36.657Z,0.00
2022-12-26T02:26:36.635Z,0.00
2022-12-26T02:27:36.629Z,0.00
2022-12-26T02:28:36.620Z,0.00
2022-12-26T02:29:36.632Z,0.00
2022-12-26T02:30:36.600Z,0.00
2022-12-26T02:31:36.701Z,0.00
2022-12-26T02:32:36.617Z,0.00
2022-12-26T02:33:36.572Z,0.00
2022-12-26T02:34:36.592Z,0.00
2022-12-26T02:35:36.575Z,0.00
2022-12-26T02:36:36.564Z,0.00
2022-12-26T02:37:36.602Z,0.00
2022-12-26T02:38:36.553Z,0.00
2022-12-26T02:39:44.571Z,0.00
2022-12-26T02:40:37.561Z,0.00
2022-12-26T02:41:36.546Z,0.00
2022-12-26T02:42:36.525Z,0.00
2022-12-26T02:43:36.510Z,0.00
2022-12-26T02:44:36.527Z,0.00
2022-12-26T02:45:36.554Z,0.00
2022-12-26T02:46:36.511Z,0.00
2022-12-26T02:47:36.494Z,0.00
2022-12-26T02:48:36.477Z,0.00
2022-12-26T02:49:36.469Z,0.00
2022-12-26T02:50:36.477Z,0.00
2022-12-26T02:51:36.476Z,0.00
2022-12-26T02:52:36.451Z,0.00
2022-12-26T02:53:36.460Z,0.00
2022-12-26T02:54:36.500Z,0.00
2022-12-26T02:55:36.464Z,0.00
2022-12-26T02:56:36.441Z,0.00
2022-12-26T02:57:36.419Z,0.00
2022-12-26T02:58:36.416Z,0.00
2022-12-26T02:59:54.308Z,0.00
2022-12-26T03:00:37.413Z,0.00
2022-12-26T03:01:36.600Z,0.00
2022-12-26T03:02:36.572Z,0.00
2022-12-26T03:03:36.380Z,0.00
2022-12-26T03:04:36.387Z,0.00
2022-12-26T03:05:36.415Z,0.00
2022-12-26T03:06:36.368Z,0.00
2022-12-26T03:07:36.365Z,0.00
2022-12-26T03:08:36.347Z,0.00
2022-12-26T03:09:36.344Z,0.00
2022-12-26T03:10:36.351Z,0.00
2022-12-26T03:11:36.322Z,0.00
2022-12-26T03:12:36.319Z,0.00
2022-12-26T03:13:36.327Z,0.00
2022-12-26T03:14:36.303Z,0.00
2022-12-26T03:15:36.373Z,0.00
2022-12-26T03:16:36.396Z,0.00
2022-12-26T03:17:36.290Z,0.00
2022-12-26T03:18:59.410Z,0.00
2022-12-26T03:19:37.275Z,0.00
2022-12-26T03:20:36.279Z,0.00
2022-12-26T03:21:36.268Z,0.00
2022-12-26T03:22:36.255Z,0.00
2022-12-26T03:23:36.252Z,0.00
2022-12-26T03:24:36.230Z,0.00
2022-12-26T03:25:36.237Z,0.00
2022-12-26T03:26:36.242Z,0.00
2022-12-26T03:27:36.219Z,0.00
2022-12-26T03:28:36.214Z,0.00
2022-12-26T03:29:36.214Z,0.00
2022-12-26T03:30:36.235Z,0.00
2022-12-26T03:31:36.195Z,0.00
2022-12-26T03:32:36.205Z,0.00
2022-12-26T03:33:36.194Z,0.00
2022-12-26T03:34:36.175Z,0.00
2022-12-26T03:35:36.171Z,0.00
2022-12-26T03:36:36.156Z,0.00
2022-12-26T03:37:49.175Z,0.00
2022-12-26T03:38:37.161Z,0.00
2022-12-26T03:39:36.144Z,0.00
2022-12-26T03:40:36.170Z,0.00
2022-12-26T03:41:36.136Z,0.00
2022-12-26T03:42:36.158Z,0.00
2022-12-26T03:43:36.111Z,0.00
2022-12-26T03:44:36.115Z,0.00
2022-12-26T03:45:36.095Z,0.00
2022-12-26T03:46:36.194Z,0.00
2022-12-26T03:47:36.115Z,0.00
2022-12-26T03:48:36.076Z,0.00
2022-12-26T03:49:36.074Z,0.00
2022-12-26T03:50:36.055Z,0.00
2022-12-26T03:51:36.057Z,0.00
2022-12-26T03:52:36.073Z,0.00
2022-12-26T03:53:36.065Z,0.00
2022-12-26T03:54:36.027Z,0.00
2022-12-26T03:55:36.024Z,0.00
2022-12-26T03:56:36.024Z,0.00
2022-12-26T03:57:36.017Z,0.00
2022-12-26T03:58:36.040Z,0.00
2022-12-26T03:59:36.042Z,0.00
2022-12-26T04:00:36.000Z,0.00
2022-12-26T04:01:36.066Z,0.00
2022-12-26T04:02:36.083Z,0.00
2022-12-26T04:03:36.044Z,0.00
2022-12-26T04:04:35.972Z,0.00
2022-12-26T04:05:35.952Z,0.00
2022-12-26T04:06:35.943Z,0.00
2022-12-26T04:07:35.941Z,0.00
2022-12-26T04:08:36.939Z,0.00
2022-12-26T04:09:35.947Z,0.00
2022-12-26T04:10:35.932Z,0.00
2022-12-26T04:11:35.921Z,0.00
2022-12-26T04:12:35.915Z,0.00
2022-12-26T04:13:35.924Z,0.00
2022-12-26T04:14:35.932Z,0.00
2022-12-26T04:15:35.935Z,0.00
2022-12-26T04:16:35.882Z,0.00
2022-12-26T04:17:35.898Z,0.00
2022-12-26T04:18:35.869Z,0.00
2022-12-26T04:19:35.855Z,0.00
2022-12-26T04:20:35.864Z,0.00
2022-12-26T04:21:35.852Z,0.00
2022-12-26T04:22:35.837Z,0.00
2022-12-26T04:23:35.832Z,0.00
2022-12-26T04:24:35.845Z,0.00
2022-12-26T04:25:50.456Z,0.00
2022-12-26T04:26:36.816Z,0.00
2022-12-26T04:27:35.808Z,0.00
2022-12-26T04:28:35.805Z,0.00
2022-12-26T04:29:35.819Z,0.00
2022-12-26T04:30:35.796Z,0.00
2022-12-26T04:31:35.842Z,0.00
2022-12-26T04:32:35.776Z,0.00
2022-12-26T04:33:35.762Z,0.00
2022-12-26T04:34:35.758Z,0.00
2022-12-26T04:35:35.808Z,0.00
2022-12-26T04:36:35.763Z,0.00
2022-12-26T04:37:35.747Z,0.00
2022-12-26T04:38:35.737Z,0.00
2022-12-26T04:39:35.723Z,0.00
2022-12-26T04:40:35.747Z,0.00
2022-12-26T04:41:35.752Z,0.00
2022-12-26T04:42:35.701Z,0.00
2022-12-26T04:43:49.014Z,0.00
2022-12-26T04:44:36.702Z,0.00
2022-12-26T04:45:35.694Z,0.00
2022-12-26T04:46:35.733Z,0.00
2022-12-26T04:47:35.670Z,0.00
2022-12-26T04:48:35.676Z,0.00
2022-12-26T04:49:35.661Z,0.00
2022-12-26T04:50:35.647Z,0.00
2022-12-26T04:51:35.686Z,0.00
2022-12-26T04:52:35.638Z,0.00
2022-12-26T04:53:35.631Z,0.00
2022-12-26T04:54:35.657Z,0.00
2022-12-26T04:55:35.621Z,0.00
2022-12-26T04:56:35.617Z,0.00
2022-12-26T04:57:35.609Z,0.00
2022-12-26T04:58:35.613Z,0.00
2022-12-26T04:59:35.604Z,0.00
2022-12-26T05:00:35.620Z,0.00
2022-12-26T05:01:35.727Z,0.00
2022-12-26T05:02:35.673Z,0.00
2022-12-26T05:03:35.652Z,0.00
2022-12-26T05:04:35.550Z,0.00
2022-12-26T05:05:35.544Z,0.00
2022-12-26T05:06:35.541Z,0.00
2022-12-26T05:07:35.552Z,0.00
2022-12-26T05:08:35.549Z,0.00
2022-12-26T05:09:35.602Z,0.00
2022-12-26T05:10:35.567Z,0.00
2022-12-26T05:11:35.570Z,0.00
2022-12-26T05:12:35.542Z,0.00
2022-12-26T05:13:35.554Z,0.00
2022-12-26T05:14:35.551Z,0.00
2022-12-26T05:15:35.566Z,0.00
2022-12-26T05:16:35.523Z,0.00
2022-12-26T05:17:35.473Z,0.00
2022-12-26T05:18:35.484Z,0.00
2022-12-26T05:19:35.471Z,0.00
2022-12-26T05:20:35.460Z,0.00
2022-12-26T05:21:35.459Z,0.00
2022-12-26T05:22:35.438Z,0.00
2022-12-26T05:23:35.431Z,0.00
2022-12-26T05:24:35.418Z,0.00
2022-12-26T05:25:35.423Z,0.00
2022-12-26T05:26:35.413Z,0.00
2022-12-26T05:27:35.413Z,0.00
2022-12-26T05:28:35.457Z,0.00
2022-12-26T05:29:35.382Z,0.00
2022-12-26T05:30:35.388Z,0.00
2022-12-26T05:31:36.884Z,0.00
2022-12-26T05:32:36.366Z,0.00
2022-12-26T05:33:35.375Z,0.00
2022-12-26T05:34:35.355Z,0.00
2022-12-26T05:35:35.347Z,0.00
2022-12-26T05:36:35.373Z,0.00
2022-12-26T05:37:35.343Z,0.00
2022-12-26T05:38:36.360Z,0.00
2022-12-26T05:39:35.329Z,0.00
2022-12-26T05:40:35.327Z,0.00
2022-12-26T05:41:35.321Z,0.00
2022-12-26T05:42:35.340Z,0.00
2022-12-26T05:43:35.551Z,0.00
2022-12-26T05:44:35.277Z,0.00
2022-12-26T05:45:35.279Z,0.00
2022-12-26T05:46:35.341Z,0.00
2022-12-26T05:47:35.277Z,0.00
2022-12-26T05:48:35.275Z,0.00
2022-12-26T05:49:35.257Z,0.00
2022-12-26T05:50:35.255Z,0.00
2022-12-26T05:51:35.252Z,0.00
2022-12-26T05:52:35.276Z,0.00
2022-12-26T05:53:35.247Z,0.00
2022-12-26T05:54:35.218Z,0.00
2022-12-26T05:55:35.217Z,0.00
2022-12-26T05:56:35.219Z,0.00
2022-12-26T05:57:35.208Z,0.00
2022-12-26T05:58:35.216Z,0.00
2022-12-26T05:59:35.195Z,0.00
2022-12-26T06:00:35.188Z,0.00
2022-12-26T06:01:35.384Z,0.00
2022-12-26T06:02:35.239Z,0.00
2022-12-26T06:03:35.221Z,0.00
2022-12-26T06:04:35.161Z,0.00
2022-12-26T06:05:35.145Z,0.00
2022-12-26T06:06:35.150Z,0.00
2022-12-26T06:07:35.154Z,0.00
2022-12-26T06:08:35.142Z,0.00
2022-12-26T06:09:35.124Z,0.00
2022-12-26T06:10:35.124Z,0.00
2022-12-26T06:11:35.107Z,0.00
2022-12-26T06:12:35.095Z,0.00
2022-12-26T06:13:35.103Z,0.00
2022-12-26T06:14:35.102Z,0.00
2022-12-26T06:15:35.074Z,0.00
2022-12-26T06:16:35.094Z,0.00
2022-12-26T06:17:35.056Z,0.00
2022-12-26T06:18:35.061Z,0.00
2022-12-26T06:19:35.082Z,0.00
2022-12-26T06:20:35.050Z,0.00
2022-12-26T06:21:35.038Z,0.00
2022-12-26T06:22:35.023Z,0.00
2022-12-26T06:23:35.056Z,0.00
2022-12-26T06:24:35.037Z,0.00
2022-12-26T06:25:35.002Z,0.00
2022-12-26T06:26:35.022Z,0.00
2022-12-26T06:27:35.001Z,0.00
2022-12-26T06:28:34.990Z,0.00
2022-12-26T06:29:34.977Z,0.00
2022-12-26T06:30:34.981Z,0.00
2022-12-26T06:31:35.031Z,0.00
2022-12-26T06:32:34.969Z,0.00
2022-12-26T06:33:34.954Z,0.00
2022-12-26T06:34:34.961Z,0.00
2022-12-26T06:35:34.948Z,0.00
2022-12-26T06:36:34.966Z,0.00
2022-12-26T06:37:34.934Z,0.00
2022-12-26T06:38:34.936Z,0.00
2022-12-26T06:39:34.921Z,0.00
2022-12-26T06:40:34.926Z,0.00
2022-12-26T06:41:34.907Z,0.00
2022-12-26T06:42:34.921Z,0.00
2022-12-26T06:43:34.885Z,0.00
2022-12-26T06:44:34.885Z,0.00
2022-12-26T06:45:34.883Z,0.00
2022-12-26T06:46:35.015Z,0.00
2022-12-26T06:47:34.878Z,0.00
2022-12-26T06:48:34.859Z,0.00
2022-12-26T06:49:34.844Z,0.00
2022-12-26T06:50:35.167Z,0.00
2022-12-26T06:51:34.840Z,0.00
2022-12-26T06:52:34.838Z,0.00
2022-12-26T06:53:34.873Z,0.00
2022-12-26T06:54:34.839Z,0.00
2022-12-26T06:55:34.802Z,0.00
2022-12-26T06:56:34.799Z,0.00
2022-12-26T06:57:34.845Z,0.00
2022-12-26T06:58:34.782Z,0.00
2022-12-26T06:59:34.795Z,0.00
2022-12-26T07:00:34.823Z,0.00
2022-12-26T07:01:34.892Z,0.00
2022-12-26T07:02:34.835Z,0.00
2022-12-26T07:03:34.753Z,0.00
2022-12-26T07:04:34.765Z,0.00
2022-12-26T07:05:34.738Z,0.00
2022-12-26T07:06:34.734Z,0.00
2022-12-26T07:07:34.746Z,0.00
2022-12-26T07:08:34.727Z,0.00
2022-12-26T07:09:34.725Z,0.00
2022-12-26T07:10:34.716Z,0.00
2022-12-26T07:11:34.720Z,0.00
2022-12-26T07:12:34.701Z,0.00
2022-12-26T07:13:34.674Z,0.00
2022-12-26T07:14:34.682Z,0.00
2022-12-26T07:15:34.703Z,0.00
2022-12-26T07:16:34.748Z,0.00
2022-12-26T07:17:34.652Z,0.00
2022-12-26T07:18:34.664Z,0.00
2022-12-26T07:19:34.639Z,0.00
2022-12-26T07:20:34.643Z,0.00
2022-12-26T07:21:40.156Z,0.00
2022-12-26T07:22:36.619Z,0.00
2022-12-26T07:23:34.694Z,0.00
2022-12-26T07:24:34.602Z,0.00
2022-12-26T07:25:34.601Z,0.00
2022-12-26T07:26:34.595Z,0.00
2022-12-26T07:27:34.596Z,0.00
2022-12-26T07:28:34.584Z,0.00
2022-12-26T07:29:34.584Z,0.00
2022-12-26T07:30:34.573Z,0.00
2022-12-26T07:31:34.601Z,0.00
2022-12-26T07:32:34.616Z,0.00
2022-12-26T07:33:34.546Z,0.00
2022-12-26T07:34:34.534Z,0.00
2022-12-26T07:35:34.537Z,0.00
2022-12-26T07:36:34.538Z,0.00
2022-12-26T07:37:34.510Z,0.00
2022-12-26T07:38:34.515Z,0.00
2022-12-26T07:39:34.507Z,0.00
2022-12-26T07:40:34.512Z,0.00
2022-12-26T07:41:34.494Z,0.00
2022-12-26T07:42:34.498Z,0.00
2022-12-26T07:43:34.484Z,0.00
2022-12-26T07:44:34.480Z,0.00
2022-12-26T07:45:34.519Z,0.00
2022-12-26T07:46:34.564Z,0.00
2022-12-26T07:47:34.440Z,0.00
2022-12-26T07:48:34.446Z,0.00
2022-12-26T07:49:34.454Z,0.00
2022-12-26T07:50:34.433Z,0.00
2022-12-26T07:51:34.415Z,0.00
2022-12-26T07:52:34.419Z,0.00
2022-12-26T07:53:34.426Z,0.00
2022-12-26T07:54:34.416Z,0.00
2022-12-26T07:55:34.411Z,0.00
2022-12-26T07:56:34.391Z,0.00
2022-12-26T07:57:49.896Z,0.00
2022-12-26T07:58:36.386Z,0.00
2022-12-26T07:59:34.365Z,0.00
2022-12-26T08:00:35.361Z,0.00
2022-12-26T08:01:34.472Z,0.00
2022-12-26T08:02:34.698Z,0.00
2022-12-26T08:03:34.435Z,0.00
2022-12-26T08:04:34.411Z,0.00
2022-12-26T08:05:34.325Z,0.00
2022-12-26T08:06:34.342Z,0.00
2022-12-26T08:07:34.322Z,0.00
2022-12-26T08:08:34.313Z,0.00
2022-12-26T08:09:34.306Z,0.00
2022-12-26T08:10:34.308Z,0.00
2022-12-26T08:11:34.285Z,0.00
2022-12-26T08:12:34.293Z,0.00
2022-12-26T08:13:34.270Z,0.00
2022-12-26T08:14:34.277Z,0.00
2022-12-26T08:15:34.253Z,0.00
2022-12-26T08:16:34.265Z,0.00
2022-12-26T08:17:34.237Z,0.00
2022-12-26T08:18:34.239Z,0.00
2022-12-26T08:19:34.252Z,0.00
2022-12-26T08:20:34.231Z,0.00
2022-12-26T08:21:34.227Z,0.00
2022-12-26T08:22:34.229Z,0.00
2022-12-26T08:23:34.203Z,0.00
2022-12-26T08:24:34.196Z,0.00
2022-12-26T08:25:34.216Z,0.00
2022-12-26T08:26:34.178Z,0.00
2022-12-26T08:27:34.303Z,0.00
2022-12-26T08:28:34.197Z,0.00
2022-12-26T08:29:34.164Z,0.00
2022-12-26T08:30:34.161Z,0.00
2022-12-26T08:31:34.184Z,5.62
2022-12-26T08:32:34.146Z,5.62
2022-12-26T08:33:34.147Z,5.62
2022-12-26T08:34:34.134Z,5.62
2022-12-26T08:35:34.120Z,5.62
2022-12-26T08:36:34.132Z,5.62
2022-12-26T08:37:34.107Z,5.62
2022-12-26T08:38:34.317Z,5.62
2022-12-26T08:39:34.089Z,5.62
2022-12-26T08:40:43.183Z,5.62
2022-12-26T08:41:36.089Z,5.62
2022-12-26T08:42:40.063Z,5.62
2022-12-26T08:44:03.572Z,5.62
2022-12-26T08:44:36.203Z,5.62
2022-12-26T08:45:34.103Z,5.62
2022-12-26T08:46:34.057Z,5.62
2022-12-26T08:47:34.044Z,5.62
2022-12-26T08:48:34.055Z,5.62
2022-12-26T08:49:34.019Z,5.62
2022-12-26T08:50:37.846Z,5.62
2022-12-26T08:51:36.012Z,11.25
2022-12-26T08:52:34.003Z,11.25
2022-12-26T08:53:33.991Z,11.25
2022-12-26T08:54:34.013Z,11.25
2022-12-26T08:55:33.993Z,11.25
2022-12-26T08:56:33.971Z,11.25
2022-12-26T08:57:33.974Z,11.25
2022-12-26T08:58:34.008Z,11.25
2022-12-26T08:59:33.967Z,16.88
2022-12-26T09:00:33.956Z,16.88
2022-12-26T09:01:34.037Z,22.50
2022-12-26T09:02:34.110Z,22.50
2022-12-26T09:03:33.983Z,16.88
2022-12-26T09:04:33.909Z,16.88
2022-12-26T09:05:33.913Z,16.88
2022-12-26T09:06:33.902Z,16.88
2022-12-26T09:07:33.888Z,16.88
2022-12-26T09:08:33.899Z,16.88
2022-12-26T09:09:33.905Z,16.88
2022-12-26T09:10:33.876Z,16.88
2022-12-26T09:11:33.868Z,16.88
2022-12-26T09:12:33.859Z,16.88
2022-12-26T09:13:33.857Z,16.88
2022-12-26T09:14:33.852Z,16.88
2022-12-26T09:15:33.837Z,11.25
2022-12-26T09:16:37.929Z,11.25
2022-12-26T09:17:35.897Z,11.25
2022-12-26T09:18:33.829Z,16.88
2022-12-26T09:19:33.830Z,16.88
2022-12-26T09:20:33.798Z,22.50
2022-12-26T09:21:33.812Z,22.50
2022-12-26T09:22:35.464Z,22.50
2022-12-26T09:23:33.777Z,22.50
2022-12-26T09:24:33.778Z,22.50
2022-12-26T09:25:34.776Z,22.50
2022-12-26T09:26:33.776Z,22.50
2022-12-26T09:27:33.773Z,22.50
2022-12-26T09:28:33.755Z,22.50
2022-12-26T09:29:33.750Z,28.12
2022-12-26T09:30:33.784Z,28.12
2022-12-26T09:31:33.741Z,28.12
2022-12-26T09:32:33.726Z,28.12
2022-12-26T09:33:33.733Z,28.12
2022-12-26T09:34:33.720Z,22.50
2022-12-26T09:35:33.697Z,22.50
2022-12-26T09:36:33.716Z,22.50
2022-12-26T09:37:33.713Z,22.50
2022-12-26T09:38:33.695Z,22.50
2022-12-26T09:39:33.673Z,28.12
2022-12-26T09:40:33.684Z,28.12
2022-12-26T09:41:33.676Z,33.75
2022-12-26T09:42:33.687Z,39.38
2022-12-26T09:43:33.665Z,39.38
2022-12-26T09:44:33.642Z,39.38
2022-12-26T09:45:33.637Z,39.38
2022-12-26T09:46:33.733Z,33.75
2022-12-26T09:47:33.615Z,33.75
2022-12-26T09:48:33.637Z,33.75
2022-12-26T09:49:33.609Z,33.75
2022-12-26T09:50:37.073Z,28.12
2022-12-26T09:51:34.604Z,22.50
2022-12-26T09:52:33.602Z,22.50
2022-12-26T09:53:33.580Z,22.50
2022-12-26T09:54:33.580Z,28.12
2022-12-26T09:55:33.571Z,33.75
2022-12-26T09:57:35.564Z,50.62
2022-12-26T09:58:33.545Z,56.25
2022-12-26T09:59:33.553Z,50.62
2022-12-26T10:00:33.538Z,56.25
2022-12-26T10:01:33.659Z,67.50
2022-12-26T10:02:33.733Z,73.12
2022-12-26T10:03:34.531Z,73.12
2022-12-26T10:04:33.542Z,61.88
2022-12-26T10:05:33.497Z,56.25
2022-12-26T10:06:33.500Z,56.25
2022-12-26T10:07:33.512Z,56.25
2022-12-26T10:08:33.481Z,61.88
2022-12-26T10:09:33.484Z,67.50
2022-12-26T10:10:33.481Z,73.12
2022-12-26T10:11:33.467Z,73.12
2022-12-26T10:12:33.452Z,67.50
2022-12-26T10:13:33.466Z,67.50
2022-12-26T10:14:33.441Z,67.50
2022-12-26T10:15:33.493Z,61.88
2022-12-26T10:16:33.437Z,61.88
2022-12-26T10:17:34.432Z,61.88
2022-12-26T10:18:33.420Z,61.88
2022-12-26T10:19:33.421Z,67.50
2022-12-26T10:20:33.435Z,84.38
2022-12-26T10:21:33.406Z,101.25
2022-12-26T10:22:33.383Z,101.25
2022-12-26T10:23:33.388Z,84.38
2022-12-26T10:24:33.369Z,73.12
2022-12-26T10:25:34.114Z,61.88
2022-12-26T10:26:34.371Z,56.25
2022-12-26T10:27:33.349Z,56.25
2022-12-26T10:28:33.374Z,61.88
2022-12-26T10:29:33.362Z,61.88
2022-12-26T10:30:33.334Z,61.88
2022-12-26T10:31:33.350Z,73.12
2022-12-26T10:32:33.317Z,84.38
2022-12-26T10:33:33.314Z,101.25
2022-12-26T10:34:33.313Z,101.25
2022-12-26T10:35:33.296Z,95.62
2022-12-26T10:36:33.294Z,95.62
2022-12-26T10:37:33.281Z,95.62
2022-12-26T10:38:33.279Z,106.88
2022-12-26T10:39:33.266Z,106.88
2022-12-26T10:40:33.257Z,106.88
2022-12-26T10:41:33.234Z,101.25
2022-12-26T10:42:33.251Z,101.25
2022-12-26T10:43:33.234Z,95.62
2022-12-26T10:44:33.241Z,84.38
2022-12-26T10:45:33.236Z,78.75
2022-12-26T10:46:33.262Z,78.75
2022-12-26T10:47:33.211Z,73.12
2022-12-26T10:48:33.215Z,73.12
2022-12-26T10:49:33.194Z,67.50
2022-12-26T10:50:33.203Z,61.88
2022-12-26T10:51:33.184Z,61.88
2022-12-26T10:52:33.178Z,61.88
2022-12-26T10:53:33.175Z,56.25
2022-12-26T10:54:33.174Z,56.25
2022-12-26T10:55:33.210Z,61.88
2022-12-26T10:56:33.178Z,56.25
2022-12-26T10:57:33.152Z,56.25
2022-12-26T10:58:33.134Z,50.62
2022-12-26T10:59:33.157Z,50.62
2022-12-26T11:00:33.140Z,50.62
2022-12-26T11:01:33.244Z,50.62
2022-12-26T11:02:33.199Z,56.25
2022-12-26T11:03:33.169Z,61.88
2022-12-26T11:06:35.079Z,78.75
2022-12-26T11:07:34.083Z,73.12
2022-12-26T11:08:36.208Z,78.75
2022-12-26T11:09:33.052Z,90.00
2022-12-26T11:10:33.072Z,90.00
2022-12-26T11:11:33.056Z,84.38
2022-12-26T11:12:33.044Z,78.75
2022-12-26T11:13:33.031Z,73.12
2022-12-26T11:14:34.145Z,67.50
2022-12-26T11:15:34.024Z,61.88
2022-12-26T11:16:33.222Z,50.62
2022-12-26T11:17:33.060Z,50.62
2022-12-26T11:18:32.996Z,50.62
2022-12-26T11:19:33.006Z,50.62
2022-12-26T11:20:32.978Z,50.62
2022-12-26T11:21:32.984Z,50.62
2022-12-26T11:22:32.966Z,50.62
2022-12-26T11:23:32.982Z,56.25
2022-12-26T11:24:32.975Z,50.62
2022-12-26T11:25:32.953Z,50.62
2022-12-26T11:26:33.013Z,56.25
2022-12-26T11:27:32.943Z,61.88
2022-12-26T11:28:32.983Z,56.25
2022-12-26T11:29:32.939Z,61.88
2022-12-26T11:30:32.922Z,67.50
2022-12-26T11:31:32.983Z,78.75
2022-12-26T11:32:32.883Z,90.00
2022-12-26T11:33:32.898Z,101.25
2022-12-26T11:34:32.960Z,106.88
2022-12-26T11:35:32.879Z,112.50
2022-12-26T11:36:32.879Z,106.88
2022-12-26T11:37:32.865Z,95.62
2022-12-26T11:38:33.080Z,90.00
2022-12-26T11:39:32.852Z,101.25
2022-12-26T11:40:32.860Z,95.62
2022-12-26T11:41:32.857Z,101.25
2022-12-26T11:42:32.821Z,101.25
2022-12-26T11:43:32.834Z,106.88
2022-12-26T11:44:32.816Z,112.50
2022-12-26T11:45:38.555Z,129.38
2022-12-26T11:46:34.826Z,129.38
2022-12-26T11:47:32.795Z,140.62
2022-12-26T11:48:32.777Z,140.62
2022-12-26T11:49:32.782Z,135.00
2022-12-26T11:50:32.772Z,123.75
2022-12-26T11:51:32.771Z,123.75
2022-12-26T11:52:32.785Z,146.25
2022-12-26T11:53:32.750Z,202.50
2022-12-26T11:54:32.748Z,230.62
2022-12-26T11:55:32.763Z,236.25
2022-12-26T11:56:32.733Z,213.75
2022-12-26T11:57:32.724Z,225.00
2022-12-26T11:58:32.720Z,202.50
2022-12-26T11:59:32.726Z,213.75
2022-12-26T12:00:32.695Z,270.00
2022-12-26T12:01:32.743Z,236.25
2022-12-26T12:02:32.781Z,568.12
2022-12-26T12:03:32.746Z,348.75
2022-12-26T12:04:32.678Z,708.75
2022-12-26T12:05:32.668Z,286.88
2022-12-26T12:06:32.672Z,264.38
2022-12-26T12:07:32.668Z,241.88
2022-12-26T12:08:32.662Z,309.38
2022-12-26T12:09:32.637Z,461.25
2022-12-26T12:10:32.640Z,343.12
2022-12-26T12:11:32.634Z,331.88
2022-12-26T12:12:32.655Z,331.88
2022-12-26T12:13:32.610Z,320.62
2022-12-26T12:14:32.598Z,348.75
2022-12-26T12:15:32.606Z,393.75
2022-12-26T12:16:32.619Z,258.75
2022-12-26T12:17:32.575Z,320.62
2022-12-26T12:18:32.587Z,292.50
2022-12-26T12:19:32.574Z,258.75
2022-12-26T12:20:32.614Z,230.62
2022-12-26T12:21:32.563Z,208.12
2022-12-26T12:22:32.561Z,196.88
2022-12-26T12:23:32.572Z,151.88
2022-12-26T12:24:32.544Z,163.12
2022-12-26T12:25:32.550Z,157.50
2022-12-26T12:26:32.545Z,146.25
2022-12-26T12:27:32.527Z,151.88
2022-12-26T12:28:32.515Z,163.12
2022-12-26T12:29:32.531Z,151.88
2022-12-26T12:30:32.514Z,146.25
2022-12-26T12:31:32.608Z,101.25
2022-12-26T12:32:32.501Z,90.00
2022-12-26T12:33:32.489Z,101.25
2022-12-26T12:34:32.528Z,129.38
2022-12-26T12:35:32.498Z,168.75
2022-12-26T12:36:32.505Z,157.50
2022-12-26T12:37:32.473Z,163.12
2022-12-26T12:38:32.473Z,168.75
2022-12-26T12:39:32.491Z,163.12
2022-12-26T12:40:32.454Z,151.88
2022-12-26T12:41:32.453Z,151.88
2022-12-26T12:42:32.440Z,146.25
2022-12-26T12:43:32.439Z,135.00
2022-12-26T12:44:32.419Z,135.00
2022-12-26T12:45:33.472Z,140.62
2022-12-26T12:46:32.430Z,151.88
2022-12-26T12:47:32.464Z,135.00
2022-12-26T12:48:32.425Z,135.00
2022-12-26T12:49:32.432Z,129.38
2022-12-26T12:50:32.422Z,129.38
2022-12-26T12:51:32.383Z,129.38
2022-12-26T12:52:32.371Z,123.75
2022-12-26T12:53:33.373Z,140.62
2022-12-26T12:54:32.381Z,151.88
2022-12-26T12:55:32.372Z,146.25
2022-12-26T12:56:34.707Z,140.62
2022-12-26T12:57:33.347Z,140.62
2022-12-26T12:58:32.339Z,129.38
2022-12-26T12:59:32.332Z,123.75
2022-12-26T13:00:32.327Z,123.75
2022-12-26T13:01:32.451Z,129.38
2022-12-26T13:02:32.567Z,129.38
2022-12-26T13:03:32.357Z,123.75
2022-12-26T13:04:32.302Z,123.75
2022-12-26T13:05:32.285Z,106.88
2022-12-26T13:06:32.300Z,101.25
2022-12-26T13:07:32.276Z,90.00
2022-12-26T13:08:32.276Z,84.38
2022-12-26T13:09:32.282Z,67.50